Portada
METAR-TAF:

METAR-TAF

Aeropuertos :

Bagdad, Iraq

Aeropuerto Internacional de Bagdad

latitud: 33-15-45N, longitud: 44-14-04E, altitud: 35 m

Observación

El informe se hizo hace 1 hora y 30 minutos, a las 03:00 UTC
Viento 3 kt del norte
Temperatura 17°C
Humedad 42%
Presión 1011 hPa
Visibilidad: 9000 m

METAR: ORBI 280300Z 35003KT 9000 NSC 17/04 Q1011 NOSIG

Hora: 07:30 (04:30 UTC)

Pronóstico

El informe se hizo hace 6 horas y 30 minutos, a las 22:00 UTC
Pronóstico válido del 28 a las 00 UTC al 28 a las 24 UTC
Viento 3 kt con dirección variable
Visibilidad 10 km o más
sin nubes por debajo de 1500 m y sin presencia de cumulonimbus.

TAF: ORBI 272200Z 2800/2824 VRB03KT CAVOK

Observaciones y pronósticos meteorológicos de más de 4000 aeropuertos (mensajes METAR y TAF).

Los puntos amarillos y rojos representan las estaciones disponibles.

Ponga el ratón en el punto deseado para ver el nombre de la estación.

Haga clic para ver las observaciones y los pronósticos meteorológicos.

Para cambiar el mapa : haga clic en los botones verdes con una cruz de color negro para hacer un zoom, en el botón verde con un guión para alejar o en las flechas verdes para mapas adyacentes.


METAR-TAF: